sensor_id;sensor_type;location;lat;lon;timestamp;pressure;altitude;pressure_sealevel;temperature;humidity
46722;BME280;32455;43.430;23.136;2022-07-29T00:01:44;98257.78;;;22.51;78.34
46722;BME280;32455;43.430;23.136;2022-07-29T00:04:29;98266.06;;;22.65;78.30
46722;BME280;32455;43.430;23.136;2022-07-29T00:07:15;98259.47;;;22.66;78.14
46722;BME280;32455;43.430;23.136;2022-07-29T00:10:00;98250.59;;;22.74;78.08
46722;BME280;32455;43.430;23.136;2022-07-29T00:12:45;98266.59;;;22.67;78.52
46722;BME280;32455;43.430;23.136;2022-07-29T00:15:31;98264.78;;;22.76;78.01
46722;BME280;32455;43.430;23.136;2022-07-29T00:18:16;98251.41;;;22.74;77.70
46722;BME280;32455;43.430;23.136;2022-07-29T00:21:01;98254.28;;;22.64;78.59
46722;BME280;32455;43.430;23.136;2022-07-29T00:23:47;98250.66;;;22.69;78.55
46722;BME280;32455;43.430;23.136;2022-07-29T00:26:33;98266.50;;;22.72;78.47
46722;BME280;32455;43.430;23.136;2022-07-29T00:29:18;98260.38;;;22.61;78.99
46722;BME280;32455;43.430;23.136;2022-07-29T00:32:03;98264.31;;;22.55;79.52
46722;BME280;32455;43.430;23.136;2022-07-29T00:34:50;98257.66;;;22.61;78.98
46722;BME280;32455;43.430;23.136;2022-07-29T00:37:55;98261.88;;;22.54;79.80
46722;BME280;32455;43.430;23.136;2022-07-29T00:40:40;98265.16;;;22.37;80.94
46722;BME280;32455;43.430;23.136;2022-07-29T00:43:26;98264.63;;;22.35;80.96
46722;BME280;32455;43.430;23.136;2022-07-29T00:46:12;98262.63;;;22.40;80.96
46722;BME280;32455;43.430;23.136;2022-07-29T00:48:57;98251.97;;;22.39;80.76
46722;BME280;32455;43.430;23.136;2022-07-29T00:51:44;98261.06;;;22.53;80.05
46722;BME280;32455;43.430;23.136;2022-07-29T00:54:29;98263.72;;;22.58;79.65
46722;BME280;32455;43.430;23.136;2022-07-29T00:57:15;98257.19;;;22.54;80.10
46722;BME280;32455;43.430;23.136;2022-07-29T01:00:03;98253.44;;;22.50;80.02
46722;BME280;32455;43.430;23.136;2022-07-29T01:02:49;98253.75;;;22.30;81.61
46722;BME280;32455;43.430;23.136;2022-07-29T01:05:35;98251.31;;;22.28;81.37
46722;BME280;32455;43.430;23.136;2022-07-29T01:08:20;98241.03;;;22.20;81.73
46722;BME280;32455;43.430;23.136;2022-07-29T01:11:07;98252.72;;;22.25;82.31
46722;BME280;32455;43.430;23.136;2022-07-29T01:13:52;98257.59;;;22.29;81.83
46722;BME280;32455;43.430;23.136;2022-07-29T01:16:59;98258.94;;;22.31;81.46
46722;BME280;32455;43.430;23.136;2022-07-29T01:29:53;98228.97;;;22.02;83.02
46722;BME280;32455;43.430;23.136;2022-07-29T01:32:40;98236.63;;;22.00;83.66
46722;BME280;32455;43.430;23.136;2022-07-29T01:35:39;98225.47;;;21.96;83.69
46722;BME280;32455;43.430;23.136;2022-07-29T01:38:26;98222.13;;;21.99;83.18
46722;BME280;32455;43.430;23.136;2022-07-29T01:41:16;98229.19;;;22.06;83.54
46722;BME280;32455;43.430;23.136;2022-07-29T01:44:14;98219.47;;;21.94;84.01
46722;BME280;32455;43.430;23.136;2022-07-29T01:47:15;98213.56;;;21.87;84.25
46722;BME280;32455;43.430;23.136;2022-07-29T01:50:07;98216.28;;;21.87;84.45
46722;BME280;32455;43.430;23.136;2022-07-29T01:52:59;98219.41;;;21.99;82.93
46722;BME280;32455;43.430;23.136;2022-07-29T01:55:45;98225.50;;;22.15;82.31
46722;BME280;32455;43.430;23.136;2022-07-29T01:58:32;98216.00;;;21.89;83.70
46722;BME280;32455;43.430;23.136;2022-07-29T02:01:21;98214.06;;;21.70;84.49
46722;BME280;32455;43.430;23.136;2022-07-29T02:04:10;98216.22;;;21.73;84.69
46722;BME280;32455;43.430;23.136;2022-07-29T02:07:03;98210.16;;;21.77;84.83
46722;BME280;32455;43.430;23.136;2022-07-29T02:09:51;98201.06;;;21.81;84.10
46722;BME280;32455;43.430;23.136;2022-07-29T02:12:40;98188.22;;;21.63;85.15
46722;BME280;32455;43.430;23.136;2022-07-29T02:15:30;98198.59;;;21.61;85.76
46722;BME280;32455;43.430;23.136;2022-07-29T02:18:18;98192.50;;;21.45;85.65
46722;BME280;32455;43.430;23.136;2022-07-29T02:21:05;98191.84;;;21.34;86.08
46722;BME280;32455;43.430;23.136;2022-07-29T02:23:53;98191.09;;;21.23;86.73
46722;BME280;32455;43.430;23.136;2022-07-29T02:26:41;98195.91;;;21.13;87.46
46722;BME280;32455;43.430;23.136;2022-07-29T02:29:30;98191.06;;;21.05;88.51
46722;BME280;32455;43.430;23.136;2022-07-29T02:32:17;98193.91;;;20.94;88.71
46722;BME280;32455;43.430;23.136;2022-07-29T02:35:03;98197.41;;;21.00;88.91
46722;BME280;32455;43.430;23.136;2022-07-29T02:37:50;98193.44;;;20.87;89.41
46722;BME280;32455;43.430;23.136;2022-07-29T02:40:56;98189.44;;;21.04;88.45
46722;BME280;32455;43.430;23.136;2022-07-29T02:43:45;98193.72;;;21.10;88.31
46722;BME280;32455;43.430;23.136;2022-07-29T02:46:34;98202.06;;;20.99;88.45
46722;BME280;32455;43.430;23.136;2022-07-29T02:49:35;98187.72;;;20.84;89.04
46722;BME280;32455;43.430;23.136;2022-07-29T02:52:44;98189.91;;;20.87;89.04
46722;BME280;32455;43.430;23.136;2022-07-29T02:58:57;98190.53;;;20.79;89.26
46722;BME280;32455;43.430;23.136;2022-07-29T03:01:43;98191.34;;;20.79;89.31
46722;BME280;32455;43.430;23.136;2022-07-29T03:04:30;98199.97;;;20.62;90.33
46722;BME280;32455;43.430;23.136;2022-07-29T03:07:18;98204.31;;;20.63;90.65
46722;BME280;32455;43.430;23.136;2022-07-29T03:10:07;98198.84;;;20.63;90.17
46722;BME280;32455;43.430;23.136;2022-07-29T03:12:55;98195.56;;;20.66;89.78
46722;BME280;32455;43.430;23.136;2022-07-29T03:15:44;98202.56;;;20.78;88.83
46722;BME280;32455;43.430;23.136;2022-07-29T03:18:31;98193.00;;;20.75;89.30
46722;BME280;32455;43.430;23.136;2022-07-29T03:21:17;98196.97;;;20.59;90.01
46722;BME280;32455;43.430;23.136;2022-07-29T03:24:02;98205.78;;;20.56;90.50
46722;BME280;32455;43.430;23.136;2022-07-29T03:26:48;98213.56;;;20.67;90.05
46722;BME280;32455;43.430;23.136;2022-07-29T03:29:34;98202.13;;;20.65;89.82
46722;BME280;32455;43.430;23.136;2022-07-29T03:32:19;98208.44;;;20.61;89.73
46722;BME280;32455;43.430;23.136;2022-07-29T03:35:07;98206.97;;;20.68;89.65
46722;BME280;32455;43.430;23.136;2022-07-29T03:37:53;98210.38;;;20.55;90.42
46722;BME280;32455;43.430;23.136;2022-07-29T03:40:46;98224.53;;;20.62;90.70
46722;BME280;32455;43.430;23.136;2022-07-29T03:43:37;98223.81;;;20.46;91.39
46722;BME280;32455;43.430;23.136;2022-07-29T03:46:26;98224.63;;;20.52;91.42
46722;BME280;32455;43.430;23.136;2022-07-29T03:49:14;98221.19;;;20.70;90.75
46722;BME280;32455;43.430;23.136;2022-07-29T03:52:01;98224.16;;;20.74;90.92
46722;BME280;32455;43.430;23.136;2022-07-29T03:54:47;98223.06;;;20.75;90.95
46722;BME280;32455;43.430;23.136;2022-07-29T03:57:33;98217.53;;;20.80;90.71
46722;BME280;32455;43.430;23.136;2022-07-29T04:00:21;98214.84;;;21.04;89.78
46722;BME280;32455;43.430;23.136;2022-07-29T04:03:08;98218.50;;;21.18;89.06
46722;BME280;32455;43.430;23.136;2022-07-29T04:06:02;98220.00;;;21.35;88.25
46722;BME280;32455;43.430;23.136;2022-07-29T04:08:51;98212.63;;;21.30;88.97
46722;BME280;32455;43.430;23.136;2022-07-29T04:11:38;98213.50;;;21.25;89.32
46722;BME280;32455;43.430;23.136;2022-07-29T04:14:24;98232.13;;;21.47;87.68
46722;BME280;32455;43.430;23.136;2022-07-29T04:17:09;98221.19;;;21.47;87.96
46722;BME280;32455;43.430;23.136;2022-07-29T04:19:54;98228.44;;;21.57;88.36
46722;BME280;32455;43.430;23.136;2022-07-29T04:22:40;98236.88;;;21.61;87.98
46722;BME280;32455;43.430;23.136;2022-07-29T04:25:25;98218.44;;;21.71;86.49
46722;BME280;32455;43.430;23.136;2022-07-29T04:28:10;98225.22;;;21.74;86.88
46722;BME280;32455;43.430;23.136;2022-07-29T04:30:56;98229.31;;;21.77;86.94
46722;BME280;32455;43.430;23.136;2022-07-29T04:33:42;98232.34;;;21.94;85.67
46722;BME280;32455;43.430;23.136;2022-07-29T04:36:27;98229.53;;;21.99;85.02
46722;BME280;32455;43.430;23.136;2022-07-29T04:39:13;98233.75;;;21.91;85.76
46722;BME280;32455;43.430;23.136;2022-07-29T04:41:58;98239.28;;;22.05;85.56
46722;BME280;32455;43.430;23.136;2022-07-29T04:44:44;98237.91;;;21.89;86.43
46722;BME280;32455;43.430;23.136;2022-07-29T04:47:28;98235.91;;;21.94;86.31
46722;BME280;32455;43.430;23.136;2022-07-29T04:50:13;98238.78;;;21.84;87.30
46722;BME280;32455;43.430;23.136;2022-07-29T04:52:59;98226.94;;;22.08;86.15
46722;BME280;32455;43.430;23.136;2022-07-29T04:55:44;98231.69;;;22.02;85.99
46722;BME280;32455;43.430;23.136;2022-07-29T04:58:29;98249.88;;;21.93;87.40
46722;BME280;32455;43.430;23.136;2022-07-29T05:01:14;98242.25;;;21.90;87.56
46722;BME280;32455;43.430;23.136;2022-07-29T05:04:00;98247.97;;;21.93;87.12
46722;BME280;32455;43.430;23.136;2022-07-29T05:06:45;98261.13;;;22.10;85.62
46722;BME280;32455;43.430;23.136;2022-07-29T05:09:31;98239.50;;;22.09;84.36
46722;BME280;32455;43.430;23.136;2022-07-29T05:12:17;98257.97;;;22.22;83.62
46722;BME280;32455;43.430;23.136;2022-07-29T05:15:01;98255.31;;;22.17;84.14
46722;BME280;32455;43.430;23.136;2022-07-29T05:17:47;98256.19;;;22.12;83.52
46722;BME280;32455;43.430;23.136;2022-07-29T05:20:33;98268.31;;;22.06;82.96
46722;BME280;32455;43.430;23.136;2022-07-29T05:23:19;98275.34;;;22.12;83.10
46722;BME280;32455;43.430;23.136;2022-07-29T05:26:07;98270.09;;;22.16;82.49
46722;BME280;32455;43.430;23.136;2022-07-29T05:28:52;98269.00;;;22.17;82.40
46722;BME280;32455;43.430;23.136;2022-07-29T05:31:38;98287.56;;;22.20;82.45
46722;BME280;32455;43.430;23.136;2022-07-29T05:34:24;98269.63;;;22.09;81.74
46722;BME280;32455;43.430;23.136;2022-07-29T05:37:10;98287.66;;;21.91;83.04
46722;BME280;32455;43.430;23.136;2022-07-29T05:39:55;98287.47;;;22.06;82.68
46722;BME280;32455;43.430;23.136;2022-07-29T05:42:41;98278.88;;;21.94;83.58
46722;BME280;32455;43.430;23.136;2022-07-29T05:45:26;98286.34;;;21.64;84.29
46722;BME280;32455;43.430;23.136;2022-07-29T05:48:12;98275.88;;;21.71;84.16
46722;BME280;32455;43.430;23.136;2022-07-29T05:50:57;98280.41;;;21.81;83.47
46722;BME280;32455;43.430;23.136;2022-07-29T05:53:42;98282.31;;;21.81;83.24
46722;BME280;32455;43.430;23.136;2022-07-29T05:56:27;98279.81;;;21.84;83.45
46722;BME280;32455;43.430;23.136;2022-07-29T05:59:13;98287.16;;;21.89;83.47
46722;BME280;32455;43.430;23.136;2022-07-29T06:01:58;98275.81;;;21.95;83.04
46722;BME280;32455;43.430;23.136;2022-07-29T06:04:44;98291.34;;;22.00;82.89
46722;BME280;32455;43.430;23.136;2022-07-29T06:07:29;98291.34;;;22.00;83.32
46722;BME280;32455;43.430;23.136;2022-07-29T06:10:15;98287.78;;;21.81;83.85
46722;BME280;32455;43.430;23.136;2022-07-29T06:13:01;98286.19;;;21.98;82.61
46722;BME280;32455;43.430;23.136;2022-07-29T06:15:46;98292.00;;;22.16;81.77
46722;BME280;32455;43.430;23.136;2022-07-29T06:18:32;98278.94;;;22.08;82.25
46722;BME280;32455;43.430;23.136;2022-07-29T06:21:30;98288.69;;;22.19;81.77
46722;BME280;32455;43.430;23.136;2022-07-29T06:24:19;98285.47;;;22.31;81.42
46722;BME280;32455;43.430;23.136;2022-07-29T06:27:04;98271.94;;;22.20;81.39
46722;BME280;32455;43.430;23.136;2022-07-29T06:29:50;98282.00;;;22.25;81.77
46722;BME280;32455;43.430;23.136;2022-07-29T06:32:35;98284.28;;;22.18;82.21
46722;BME280;32455;43.430;23.136;2022-07-29T06:35:21;98286.38;;;22.26;82.20
46722;BME280;32455;43.430;23.136;2022-07-29T06:38:06;98279.41;;;22.34;81.33
46722;BME280;32455;43.430;23.136;2022-07-29T06:40:52;98280.97;;;22.21;82.29
46722;BME280;32455;43.430;23.136;2022-07-29T06:43:54;98292.59;;;22.32;81.64
46722;BME280;32455;43.430;23.136;2022-07-29T06:46:41;98291.34;;;22.00;83.59
46722;BME280;32455;43.430;23.136;2022-07-29T06:49:28;98292.59;;;22.13;83.15
46722;BME280;32455;43.430;23.136;2022-07-29T06:52:14;98273.84;;;22.39;81.89
46722;BME280;32455;43.430;23.136;2022-07-29T06:54:59;98270.41;;;22.33;82.08
46722;BME280;32455;43.430;23.136;2022-07-29T06:57:44;98287.47;;;22.44;82.08
46722;BME280;32455;43.430;23.136;2022-07-29T07:00:29;98278.22;;;22.59;80.97
46722;BME280;32455;43.430;23.136;2022-07-29T07:03:16;98285.56;;;22.77;81.00
46722;BME280;32455;43.430;23.136;2022-07-29T07:06:00;98273.78;;;22.63;81.27
46722;BME280;32455;43.430;23.136;2022-07-29T07:08:46;98270.59;;;22.88;80.72
46722;BME280;32455;43.430;23.136;2022-07-29T07:11:31;98269.38;;;23.13;79.38
46722;BME280;32455;43.430;23.136;2022-07-29T07:14:17;98276.72;;;22.99;80.25
46722;BME280;32455;43.430;23.136;2022-07-29T07:17:02;98263.69;;;23.23;79.13
46722;BME280;32455;43.430;23.136;2022-07-29T07:19:48;98266.16;;;23.39;78.32
46722;BME280;32455;43.430;23.136;2022-07-29T07:22:34;98268.47;;;23.45;77.37
46722;BME280;32455;43.430;23.136;2022-07-29T07:25:19;98269.22;;;23.51;77.11
46722;BME280;32455;43.430;23.136;2022-07-29T07:28:05;98265.94;;;23.63;77.33
46722;BME280;32455;43.430;23.136;2022-07-29T07:30:50;98258.72;;;23.81;75.91
46722;BME280;32455;43.430;23.136;2022-07-29T07:33:36;98271.22;;;23.87;75.28
46722;BME280;32455;43.430;23.136;2022-07-29T07:36:22;98269.47;;;23.63;76.04
46722;BME280;32455;43.430;23.136;2022-07-29T07:39:07;98264.31;;;23.48;77.37
46722;BME280;32455;43.430;23.136;2022-07-29T07:41:53;98267.59;;;23.78;77.11
46722;BME280;32455;43.430;23.136;2022-07-29T07:44:39;98265.63;;;23.92;75.91
46722;BME280;32455;43.430;23.136;2022-07-29T07:47:24;98273.81;;;24.06;75.74
46722;BME280;32455;43.430;23.136;2022-07-29T07:50:12;98271.41;;;24.40;74.59
46722;BME280;32455;43.430;23.136;2022-07-29T07:52:57;98274.31;;;24.58;73.80
46722;BME280;32455;43.430;23.136;2022-07-29T07:55:43;98273.94;;;24.73;73.50
46722;BME280;32455;43.430;23.136;2022-07-29T07:58:28;98274.66;;;24.87;72.47
46722;BME280;32455;43.430;23.136;2022-07-29T08:01:13;98282.69;;;24.97;72.47
46722;BME280;32455;43.430;23.136;2022-07-29T08:03:59;98267.19;;;24.79;72.63
46722;BME280;32455;43.430;23.136;2022-07-29T08:06:44;98276.78;;;25.13;71.90
46722;BME280;32455;43.430;23.136;2022-07-29T08:09:30;98276.41;;;25.06;70.54
46722;BME280;32455;43.430;23.136;2022-07-29T08:12:16;98276.03;;;24.98;70.53
46722;BME280;32455;43.430;23.136;2022-07-29T08:15:01;98278.16;;;25.24;70.44
46722;BME280;32455;43.430;23.136;2022-07-29T08:17:47;98277.00;;;25.65;70.02
46722;BME280;32455;43.430;23.136;2022-07-29T08:20:32;98276.97;;;25.87;68.79
46722;BME280;32455;43.430;23.136;2022-07-29T08:23:20;98283.59;;;25.95;69.03
46722;BME280;32455;43.430;23.136;2022-07-29T08:26:06;98273.53;;;25.90;68.04
46722;BME280;32455;43.430;23.136;2022-07-29T08:28:55;98266.34;;;25.72;69.83
46722;BME280;32455;43.430;23.136;2022-07-29T08:31:40;98281.81;;;25.99;68.26
46722;BME280;32455;43.430;23.136;2022-07-29T08:34:25;98291.94;;;26.21;67.49
46722;BME280;32455;43.430;23.136;2022-07-29T08:37:11;98292.41;;;26.32;67.50
46722;BME280;32455;43.430;23.136;2022-07-29T08:39:57;98280.84;;;26.04;67.20
46722;BME280;32455;43.430;23.136;2022-07-29T08:42:42;98289.47;;;26.19;66.60
46722;BME280;32455;43.430;23.136;2022-07-29T08:45:28;98284.78;;;26.29;64.36
46722;BME280;32455;43.430;23.136;2022-07-29T08:48:24;98282.69;;;26.26;66.25
46722;BME280;32455;43.430;23.136;2022-07-29T08:51:18;98290.63;;;26.36;66.62
46722;BME280;32455;43.430;23.136;2022-07-29T08:54:03;98280.63;;;26.57;65.29
46722;BME280;32455;43.430;23.136;2022-07-29T08:56:50;98278.50;;;26.71;64.44
46722;BME280;32455;43.430;23.136;2022-07-29T08:59:38;98270.38;;;26.84;63.56
46722;BME280;32455;43.430;23.136;2022-07-29T09:02:26;98268.09;;;26.86;63.32
46722;BME280;32455;43.430;23.136;2022-07-29T09:05:12;98264.16;;;27.04;62.62
46722;BME280;32455;43.430;23.136;2022-07-29T09:07:57;98256.84;;;27.08;61.04
46722;BME280;32455;43.430;23.136;2022-07-29T09:10:42;98261.41;;;27.04;61.45
46722;BME280;32455;43.430;23.136;2022-07-29T09:13:27;98256.47;;;27.27;61.96
46722;BME280;32455;43.430;23.136;2022-07-29T09:16:12;98242.19;;;27.34;61.36
46722;BME280;32455;43.430;23.136;2022-07-29T09:18:58;98249.44;;;27.47;60.31
46722;BME280;32455;43.430;23.136;2022-07-29T09:21:43;98249.06;;;27.02;60.78
46722;BME280;32455;43.430;23.136;2022-07-29T09:24:45;98245.66;;;27.13;60.57
46722;BME280;32455;43.430;23.136;2022-07-29T09:27:31;98241.41;;;27.25;60.40
46722;BME280;32455;43.430;23.136;2022-07-29T09:30:16;98238.97;;;27.61;60.56
46722;BME280;32455;43.430;23.136;2022-07-29T09:33:02;98240.94;;;27.90;57.79
46722;BME280;32455;43.430;23.136;2022-07-29T09:36:09;98235.06;;;27.92;57.07
46722;BME280;32455;43.430;23.136;2022-07-29T09:39:00;98227.63;;;27.92;57.55
46722;BME280;32455;43.430;23.136;2022-07-29T09:41:54;98227.66;;;27.84;57.18
46722;BME280;32455;43.430;23.136;2022-07-29T09:44:52;98216.69;;;27.96;57.86
46722;BME280;32455;43.430;23.136;2022-07-29T09:47:46;98215.22;;;28.19;57.58
46722;BME280;32455;43.430;23.136;2022-07-29T09:50:41;98211.22;;;28.29;55.52
46722;BME280;32455;43.430;23.136;2022-07-29T09:56:16;98204.81;;;28.58;55.21
46722;BME280;32455;43.430;23.136;2022-07-29T09:59:08;98215.25;;;28.74;55.23
46722;BME280;32455;43.430;23.136;2022-07-29T10:01:52;98206.25;;;28.77;53.92
46722;BME280;32455;43.430;23.136;2022-07-29T10:04:39;98208.69;;;28.78;53.63
46722;BME280;32455;43.430;23.136;2022-07-29T10:07:25;98203.25;;;28.69;54.26
46722;BME280;32455;43.430;23.136;2022-07-29T10:10:22;98204.53;;;28.84;53.63
46722;BME280;32455;43.430;23.136;2022-07-29T10:13:12;98202.56;;;28.85;53.44
46722;BME280;32455;43.430;23.136;2022-07-29T10:15:58;98197.97;;;28.89;52.96
46722;BME280;32455;43.430;23.136;2022-07-29T10:18:44;98201.03;;;28.96;53.25
46722;BME280;32455;43.430;23.136;2022-07-29T10:21:30;98196.44;;;29.00;53.68
46722;BME280;32455;43.430;23.136;2022-07-29T10:24:18;98190.19;;;29.03;53.44
46722;BME280;32455;43.430;23.136;2022-07-29T10:27:06;98193.69;;;28.79;53.87
46722;BME280;32455;43.430;23.136;2022-07-29T10:29:53;98182.47;;;28.97;54.03
46722;BME280;32455;43.430;23.136;2022-07-29T10:45:04;98178.59;;;29.34;52.14
46722;BME280;32455;43.430;23.136;2022-07-29T10:48:03;98168.41;;;29.51;52.08
46722;BME280;32455;43.430;23.136;2022-07-29T10:50:59;98173.59;;;29.52;50.96
46722;BME280;32455;43.430;23.136;2022-07-29T10:53:49;98181.44;;;29.75;51.25
46722;BME280;32455;43.430;23.136;2022-07-29T10:56:35;98172.31;;;29.86;49.84
46722;BME280;32455;43.430;23.136;2022-07-29T11:02:41;98166.94;;;30.06;50.35
46722;BME280;32455;43.430;23.136;2022-07-29T11:05:54;98169.13;;;30.25;49.22
46722;BME280;32455;43.430;23.136;2022-07-29T11:08:40;98176.16;;;30.10;50.73
46722;BME280;32455;43.430;23.136;2022-07-29T11:14:11;98151.16;;;30.34;49.29
46722;BME280;32455;43.430;23.136;2022-07-29T11:17:02;98154.59;;;30.15;48.73
46722;BME280;32455;43.430;23.136;2022-07-29T11:19:47;98151.75;;;30.28;48.39
46722;BME280;32455;43.430;23.136;2022-07-29T11:22:34;98136.44;;;30.18;48.52
46722;BME280;32455;43.430;23.136;2022-07-29T11:25:20;98149.06;;;30.59;48.16
46722;BME280;32455;43.430;23.136;2022-07-29T11:28:12;98152.28;;;30.46;47.94
46722;BME280;32455;43.430;23.136;2022-07-29T11:30:59;98154.50;;;30.84;47.61
46722;BME280;32455;43.430;23.136;2022-07-29T11:33:46;98152.75;;;30.63;48.23
46722;BME280;32455;43.430;23.136;2022-07-29T11:36:31;98139.53;;;30.29;47.37
46722;BME280;32455;43.430;23.136;2022-07-29T11:39:27;98150.56;;;30.85;47.26
46722;BME280;32455;43.430;23.136;2022-07-29T11:45:21;98143.91;;;31.21;46.78
46722;BME280;32455;43.430;23.136;2022-07-29T11:48:18;98137.41;;;31.29;46.48
46722;BME280;32455;43.430;23.136;2022-07-29T11:51:09;98134.28;;;31.31;45.95
46722;BME280;32455;43.430;23.136;2022-07-29T11:53:57;98128.16;;;31.41;46.07
46722;BME280;32455;43.430;23.136;2022-07-29T11:56:45;98130.28;;;31.48;45.59
46722;BME280;32455;43.430;23.136;2022-07-29T11:59:31;98127.97;;;31.50;45.56
46722;BME280;32455;43.430;23.136;2022-07-29T12:02:17;98123.31;;;31.38;44.95
46722;BME280;32455;43.430;23.136;2022-07-29T12:05:02;98125.50;;;31.29;45.23
46722;BME280;32455;43.430;23.136;2022-07-29T12:07:48;98117.44;;;30.32;47.73
46722;BME280;32455;43.430;23.136;2022-07-29T12:10:33;98105.97;;;30.78;47.29
46722;BME280;32455;43.430;23.136;2022-07-29T12:13:20;98105.25;;;31.12;45.74
46722;BME280;32455;43.430;23.136;2022-07-29T12:16:06;98113.94;;;30.95;45.71
46722;BME280;32455;43.430;23.136;2022-07-29T12:18:58;98105.13;;;30.61;47.60
46722;BME280;32455;43.430;23.136;2022-07-29T12:21:46;98117.50;;;31.27;46.66
46722;BME280;32455;43.430;23.136;2022-07-29T12:24:53;98106.69;;;31.22;46.14
46722;BME280;32455;43.430;23.136;2022-07-29T12:27:39;98073.22;;;31.50;45.81
46722;BME280;32455;43.430;23.136;2022-07-29T12:33:28;98098.94;;;32.02;44.53
46722;BME280;32455;43.430;23.136;2022-07-29T12:36:14;98086.78;;;31.90;43.10
46722;BME280;32455;43.430;23.136;2022-07-29T12:39:00;98082.03;;;31.21;46.08
46722;BME280;32455;43.430;23.136;2022-07-29T12:41:45;98088.63;;;30.97;46.63
46722;BME280;32455;43.430;23.136;2022-07-29T12:44:45;98085.03;;;30.96;46.83
46722;BME280;32455;43.430;23.136;2022-07-29T12:47:32;98091.41;;;30.81;47.46
46722;BME280;32455;43.430;23.136;2022-07-29T12:50:18;98089.16;;;31.02;46.78
46722;BME280;32455;43.430;23.136;2022-07-29T12:53:12;98087.69;;;31.24;45.91
46722;BME280;32455;43.430;23.136;2022-07-29T12:55:59;98084.50;;;30.90;46.88
46722;BME280;32455;43.430;23.136;2022-07-29T12:58:46;98073.03;;;30.60;47.15
46722;BME280;32455;43.430;23.136;2022-07-29T13:01:36;98080.03;;;31.02;46.36
46722;BME280;32455;43.430;23.136;2022-07-29T13:04:28;98073.50;;;30.78;47.13
46722;BME280;32455;43.430;23.136;2022-07-29T13:07:24;98070.44;;;30.67;46.90
46722;BME280;32455;43.430;23.136;2022-07-29T13:10:15;98072.50;;;30.86;46.87
46722;BME280;32455;43.430;23.136;2022-07-29T13:13:12;98064.28;;;30.90;47.14
46722;BME280;32455;43.430;23.136;2022-07-29T13:16:07;98071.44;;;31.26;45.91
46722;BME280;32455;43.430;23.136;2022-07-29T13:19:08;98063.97;;;31.62;45.43
46722;BME280;32455;43.430;23.136;2022-07-29T13:21:54;98060.19;;;31.89;44.13
46722;BME280;32455;43.430;23.136;2022-07-29T13:24:56;98041.44;;;32.06;44.07
46722;BME280;32455;43.430;23.136;2022-07-29T13:27:42;98060.72;;;31.95;44.78
46722;BME280;32455;43.430;23.136;2022-07-29T13:30:30;98059.50;;;31.77;45.10
46722;BME280;32455;43.430;23.136;2022-07-29T13:33:16;98047.22;;;31.97;43.63
46722;BME280;32455;43.430;23.136;2022-07-29T13:36:01;98046.84;;;32.18;43.15
46722;BME280;32455;43.430;23.136;2022-07-29T13:38:47;98045.78;;;32.46;42.75
46722;BME280;32455;43.430;23.136;2022-07-29T13:41:33;98048.31;;;32.54;42.21
46722;BME280;32455;43.430;23.136;2022-07-29T13:44:19;98030.22;;;32.64;41.93
46722;BME280;32455;43.430;23.136;2022-07-29T13:47:05;98050.31;;;32.80;41.53
46722;BME280;32455;43.430;23.136;2022-07-29T13:49:50;98039.19;;;32.80;40.98
46722;BME280;32455;43.430;23.136;2022-07-29T13:52:36;98038.69;;;32.48;41.70
46722;BME280;32455;43.430;23.136;2022-07-29T13:55:23;98019.63;;;32.73;41.53
46722;BME280;32455;43.430;23.136;2022-07-29T13:58:09;98030.09;;;33.06;41.18
46722;BME280;32455;43.430;23.136;2022-07-29T14:00:55;98042.47;;;33.09;41.45
46722;BME280;32455;43.430;23.136;2022-07-29T14:03:41;98028.44;;;33.28;40.58
46722;BME280;32455;43.430;23.136;2022-07-29T14:06:28;98028.72;;;33.20;40.61
46722;BME280;32455;43.430;23.136;2022-07-29T14:09:12;98040.94;;;33.42;40.23
46722;BME280;32455;43.430;23.136;2022-07-29T14:11:58;98040.13;;;33.11;40.88
46722;BME280;32455;43.430;23.136;2022-07-29T14:14:44;98038.97;;;32.66;41.30
46722;BME280;32455;43.430;23.136;2022-07-29T14:17:30;98031.59;;;32.31;42.10
46722;BME280;32455;43.430;23.136;2022-07-29T14:20:15;98027.16;;;32.73;40.83
46722;BME280;32455;43.430;23.136;2022-07-29T14:23:00;98020.84;;;32.30;41.30
46722;BME280;32455;43.430;23.136;2022-07-29T14:25:47;98017.69;;;32.08;42.85
46722;BME280;32455;43.430;23.136;2022-07-29T14:28:32;98028.50;;;31.75;43.82
46722;BME280;32455;43.430;23.136;2022-07-29T14:31:17;98027.41;;;31.40;44.87
46722;BME280;32455;43.430;23.136;2022-07-29T14:34:02;98020.88;;;31.33;44.33
46722;BME280;32455;43.430;23.136;2022-07-29T14:36:48;98013.34;;;30.98;45.88
46722;BME280;32455;43.430;23.136;2022-07-29T14:39:34;98020.94;;;31.01;46.24
46722;BME280;32455;43.430;23.136;2022-07-29T14:42:21;98021.84;;;31.25;45.68
46722;BME280;32455;43.430;23.136;2022-07-29T14:45:07;98012.06;;;31.66;44.57
46722;BME280;32455;43.430;23.136;2022-07-29T14:47:53;98000.59;;;31.87;43.97
46722;BME280;32455;43.430;23.136;2022-07-29T14:50:39;98012.59;;;32.37;42.80
46722;BME280;32455;43.430;23.136;2022-07-29T14:53:25;97997.09;;;32.59;41.88
46722;BME280;32455;43.430;23.136;2022-07-29T14:56:11;98008.97;;;32.79;41.40
46722;BME280;32455;43.430;23.136;2022-07-29T14:58:57;98011.09;;;32.89;41.01
46722;BME280;32455;43.430;23.136;2022-07-29T15:01:42;98001.88;;;32.81;41.11
46722;BME280;32455;43.430;23.136;2022-07-29T15:04:28;98008.84;;;32.95;40.50
46722;BME280;32455;43.430;23.136;2022-07-29T15:07:14;98010.31;;;32.88;40.50
46722;BME280;32455;43.430;23.136;2022-07-29T15:10:00;98005.13;;;32.87;40.54
46722;BME280;32455;43.430;23.136;2022-07-29T15:12:46;97998.28;;;32.58;40.78
46722;BME280;32455;43.430;23.136;2022-07-29T15:15:33;98004.03;;;32.69;41.22
46722;BME280;32455;43.430;23.136;2022-07-29T15:18:18;97989.78;;;32.47;40.28